Buritama, Brazil
Current Conditions -  °F | °C
As of 6:00 PM on Tuesday 27 Jan 2015 (Local Time) from SBSR Reporting Station
Broken Clouds Broken Clouds  
Wind Chill: 86°   Ceiling: 3000
Heat Index: 87°   Visibility: 6mi
Dew Point: 63°   Wind: 6mph
Humidity: 45%   Direction: 360°N
Pressure: 29.88"   Gusts: NA
Location:  21.07°S, 50.15°W
Report Text: SBSR 272000Z 36005KT 9999 BKN030 30/17 Q1012
Loading
Personal Weather Stations






























Interactive Weather Map New forecast layout! Learn more

10-Day Weather Forecast

Advertisements
Track Severe Weather on mobile